createdAt,value
2017-10-06T00:02:09.951Z,59.80
2017-10-06T00:04:38.038Z,59.80
2017-10-06T00:07:06.139Z,61.70
2017-10-06T00:09:34.223Z,57.00
2017-10-06T00:12:02.324Z,61.00
2017-10-06T00:14:30.820Z,59.70
2017-10-06T00:16:58.913Z,55.80
2017-10-06T00:19:27.007Z,58.30
2017-10-06T00:21:55.119Z,62.20
2017-10-06T00:24:23.967Z,58.70
2017-10-06T00:26:52.048Z,58.00
2017-10-06T00:29:20.155Z,64.60
2017-10-06T00:31:49.035Z,60.80
2017-10-06T00:34:18.260Z,61.10
2017-10-06T00:36:46.348Z,60.70
2017-10-06T00:39:15.228Z,62.50
2017-10-06T00:41:43.316Z,57.70
2017-10-06T00:44:11.796Z,58.30
2017-10-06T00:46:39.896Z,58.20
2017-10-06T00:49:07.995Z,58.60
2017-10-06T00:51:36.851Z,61.20
2017-10-06T00:54:04.932Z,65.30
2017-10-06T00:56:33.804Z,62.10
2017-10-06T00:59:01.895Z,63.70
2017-10-06T01:01:29.972Z,63.30
2017-10-06T01:03:58.076Z,63.00
2017-10-06T01:06:26.548Z,62.80
2017-10-06T01:08:55.391Z,63.10
2017-10-06T01:11:23.488Z,64.70
2017-10-06T01:13:51.600Z,63.20
2017-10-06T01:16:20.447Z,66.30
2017-10-06T01:18:48.923Z,63.60
2017-10-06T01:21:17.787Z,66.10
2017-10-06T01:23:45.884Z,65.60
2017-10-06T01:26:13.959Z,67.90
2017-10-06T01:28:42.055Z,65.80
2017-10-06T01:31:10.151Z,66.70
2017-10-06T01:33:38.995Z,65.80
2017-10-06T01:36:07.112Z,67.10
2017-10-06T01:41:04.929Z,65.80
2017-10-06T01:43:33.020Z,64.30
2017-10-06T01:46:01.115Z,64.80
2017-10-06T01:48:29.211Z,66.50
2017-10-06T01:50:57.703Z,68.40
2017-10-06T01:53:25.792Z,67.70
2017-10-06T01:55:55.020Z,70.30
2017-10-06T01:58:23.520Z,68.20
2017-10-06T02:00:51.590Z,69.30
2017-10-06T02:03:19.663Z,68.40
2017-10-06T02:05:47.768Z,69.20
2017-10-06T02:08:15.843Z,70.30
2017-10-06T02:10:43.919Z,70.10
2017-10-06T02:13:12.023Z,70.60
2017-10-06T02:15:40.495Z,71.70
2017-10-06T02:18:08.564Z,70.50
2017-10-06T02:20:37.429Z,70.90
2017-10-06T02:23:05.891Z,71.60
2017-10-06T02:25:34.756Z,70.20
2017-10-06T02:28:02.836Z,71.90
2017-10-06T02:30:30.911Z,71.20
2017-10-06T02:32:59.019Z,72.70
2017-10-06T02:35:27.836Z,74.40
2017-10-06T02:37:55.946Z,74.00
2017-10-06T02:40:24.027Z,77.20
2017-10-06T02:42:52.095Z,74.00
2017-10-06T02:45:20.192Z,73.60
2017-10-06T02:47:48.287Z,73.90
2017-10-06T02:50:16.378Z,76.00
2017-10-06T02:52:44.499Z,74.70
2017-10-06T02:55:12.992Z,74.20
2017-10-06T02:57:41.068Z,75.00
2017-10-06T03:00:09.148Z,74.30
2017-10-06T03:02:37.239Z,74.00
2017-10-06T03:05:06.467Z,74.80
2017-10-06T03:07:34.545Z,75.10
2017-10-06T03:10:02.636Z,74.30
2017-10-06T03:12:31.471Z,74.90
2017-10-06T03:14:59.576Z,77.40
2017-10-06T03:17:27.652Z,74.00
2017-10-06T03:19:55.722Z,75.20
2017-10-06T03:22:23.816Z,75.30
2017-10-06T03:24:52.288Z,76.20
2017-10-06T03:27:20.384Z,76.50
2017-10-06T03:29:48.465Z,77.10
2017-10-06T03:32:16.562Z,76.90
2017-10-06T03:34:44.640Z,76.00
2017-10-06T03:37:12.711Z,75.70
2017-10-06T03:39:40.820Z,76.30
2017-10-06T03:42:08.896Z,76.40
2017-10-06T03:44:36.971Z,77.50
2017-10-06T03:47:05.840Z,77.20
2017-10-06T03:49:35.423Z,76.80
2017-10-06T03:52:03.592Z,76.70
2017-10-06T03:54:32.420Z,78.20
2017-10-06T03:57:02.004Z,80.80
2017-10-06T03:59:30.077Z,77.60
2017-10-06T04:01:58.234Z,77.40
2017-10-06T04:04:27.038Z,78.20
2017-10-06T04:06:55.116Z,78.70
2017-10-06T04:09:23.207Z,77.60
2017-10-06T04:11:51.280Z,78.70
2017-10-06T04:14:19.392Z,79.50
2017-10-06T04:16:47.474Z,77.80
2017-10-06T04:19:15.566Z,78.60
2017-10-06T04:21:43.638Z,80.10
2017-10-06T04:24:11.755Z,78.60
2017-10-06T04:26:40.624Z,78.10
2017-10-06T04:29:10.236Z,78.40
2017-10-06T04:31:38.703Z,77.60
2017-10-06T04:34:06.783Z,77.70
2017-10-06T04:36:34.887Z,78.60
2017-10-06T04:39:03.725Z,78.00
2017-10-06T04:41:31.804Z,77.30
2017-10-06T04:43:59.892Z,77.60
2017-10-06T04:46:27.962Z,77.00
2017-10-06T04:48:56.447Z,77.50
2017-10-06T04:51:24.564Z,78.80
2017-10-06T04:53:52.634Z,76.50
2017-10-06T04:56:21.107Z,77.40
2017-10-06T04:58:49.203Z,77.30
2017-10-06T05:01:18.052Z,77.20
2017-10-06T05:03:46.911Z,79.50
2017-10-06T05:06:14.988Z,78.30
2017-10-06T05:08:43.087Z,76.80
2017-10-06T05:11:11.955Z,79.20
2017-10-06T05:13:40.027Z,77.60
2017-10-06T05:16:08.873Z,77.70
2017-10-06T05:18:37.733Z,77.40
2017-10-06T05:21:06.576Z,77.10
2017-10-06T05:23:34.686Z,77.10
2017-10-06T05:26:02.763Z,77.50
2017-10-06T05:28:31.602Z,78.00
2017-10-06T05:31:00.470Z,77.90
2017-10-06T05:33:28.571Z,76.60
2017-10-06T05:40:55.342Z,77.00
2017-10-06T05:45:53.542Z,77.30
2017-10-06T05:48:21.623Z,76.40
2017-10-06T05:50:49.715Z,77.00
2017-10-06T05:53:17.815Z,77.20
2017-10-06T05:55:46.671Z,78.90
2017-10-06T05:58:15.495Z,77.50
2017-10-06T06:00:44.351Z,77.00
2017-10-06T06:03:12.440Z,77.30
2017-10-06T06:08:09.876Z,81.10
2017-10-06T06:10:37.967Z,74.00
2017-10-06T06:13:06.044Z,74.00
2017-10-06T06:15:34.183Z,74.00
2017-10-06T06:18:02.988Z,74.40
2017-10-06T06:20:31.062Z,74.60
2017-10-06T06:22:59.171Z,73.00
2017-10-06T06:25:28.016Z,73.30
2017-10-06T06:27:56.087Z,71.80
2017-10-06T06:30:24.178Z,72.60
2017-10-06T06:32:52.327Z,73.60
2017-10-06T06:35:21.147Z,72.60
2017-10-06T06:37:49.626Z,71.90
2017-10-06T06:40:17.699Z,71.60
2017-10-06T06:42:45.797Z,71.50
2017-10-06T06:45:14.659Z,72.80
2017-10-06T06:47:42.740Z,73.00
2017-10-06T06:50:10.840Z,73.00
2017-10-06T06:52:40.435Z,73.00
2017-10-06T06:55:09.300Z,74.60
2017-10-06T06:57:37.388Z,74.30
2017-10-06T07:00:05.475Z,74.90
2017-10-06T07:02:33.949Z,75.80
2017-10-06T07:05:02.820Z,74.80
2017-10-06T07:07:30.900Z,74.40
2017-10-06T07:09:58.980Z,73.60
2017-10-06T07:12:27.075Z,74.00
2017-10-06T07:14:55.156Z,74.80
2017-10-06T07:17:23.236Z,73.60
2017-10-06T07:19:52.097Z,74.50
2017-10-06T07:22:20.959Z,72.30
2017-10-06T07:24:49.043Z,70.60
2017-10-06T07:27:17.120Z,72.50
2017-10-06T07:29:45.235Z,70.20
2017-10-06T07:32:13.363Z,71.00
2017-10-06T07:34:41.431Z,71.10
2017-10-06T07:37:09.530Z,70.20
2017-10-06T07:39:37.606Z,69.20
2017-10-06T07:42:05.688Z,69.80
2017-10-06T07:44:33.799Z,67.60
2017-10-06T07:47:03.389Z,68.60
2017-10-06T07:49:31.460Z,68.90
2017-10-06T07:51:59.546Z,67.70
2017-10-06T07:54:28.014Z,67.60
2017-10-06T07:56:56.875Z,67.80
2017-10-06T07:59:27.186Z,68.40
2017-10-06T08:01:56.024Z,69.30
2017-10-06T08:04:24.104Z,69.50
2017-10-06T08:06:52.219Z,70.70
2017-10-06T08:09:21.059Z,70.20
2017-10-06T08:11:49.526Z,73.50
2017-10-06T08:14:18.395Z,71.60
2017-10-06T08:16:46.474Z,72.70
2017-10-06T08:19:14.555Z,73.10
2017-10-06T08:24:12.041Z,72.70
2017-10-06T08:26:40.095Z,72.00
2017-10-06T08:29:08.187Z,69.50
2017-10-06T08:31:36.283Z,71.40
2017-10-06T08:34:04.358Z,69.70
2017-10-06T08:36:32.460Z,68.60
2017-10-06T08:39:01.327Z,68.00
2017-10-06T08:41:29.411Z,67.40
2017-10-06T08:43:57.495Z,67.60
2017-10-06T08:46:26.364Z,63.00
2017-10-06T08:48:55.956Z,58.80
2017-10-06T08:51:24.039Z,57.10
2017-10-06T08:53:52.143Z,55.40
2017-10-06T08:56:20.990Z,58.70
2017-10-06T08:58:49.076Z,54.30
2017-10-06T09:01:17.171Z,50.00
2017-10-06T09:03:46.038Z,49.50
2017-10-06T09:06:14.120Z,47.70
2017-10-06T09:08:42.194Z,45.70
2017-10-06T09:11:10.303Z,44.90
2017-10-06T09:13:38.384Z,42.80
2017-10-06T09:16:06.467Z,44.50
2017-10-06T09:18:34.575Z,42.70
2017-10-06T09:21:02.663Z,41.10
2017-10-06T09:23:31.516Z,42.20
2017-10-06T09:26:00.368Z,39.20
2017-10-06T09:28:29.236Z,38.20
2017-10-06T09:30:58.177Z,35.50
2017-10-06T09:33:26.983Z,37.30
2017-10-06T09:35:55.831Z,34.20
2017-10-06T09:38:23.932Z,34.70
2017-10-06T09:40:52.102Z,35.00
2017-10-06T09:43:20.943Z,36.20
2017-10-06T09:45:49.419Z,34.70
2017-10-06T09:48:18.268Z,34.30
2017-10-06T09:50:47.136Z,31.30
2017-10-06T09:53:15.211Z,34.20
2017-10-06T09:55:43.328Z,33.50
2017-10-06T09:58:11.413Z,34.70
2017-10-06T10:00:39.500Z,35.90
2017-10-06T10:03:08.368Z,35.20
2017-10-06T10:08:06.202Z,31.10
2017-10-06T10:10:34.279Z,28.80
2017-10-06T10:13:02.378Z,30.60
2017-10-06T10:15:31.251Z,35.20
2017-10-06T10:17:59.345Z,35.80
2017-10-06T10:20:27.432Z,36.20
2017-10-06T10:22:55.520Z,39.00
2017-10-06T10:25:24.379Z,42.30
2017-10-06T10:27:52.467Z,42.90
2017-10-06T10:30:20.566Z,44.40
2017-10-06T10:32:49.416Z,44.20
2017-10-06T10:35:17.499Z,40.20
2017-10-06T10:37:45.608Z,36.70
2017-10-06T10:40:13.687Z,33.50
2017-10-06T10:42:41.773Z,30.90
2017-10-06T10:45:09.881Z,32.10
2017-10-06T10:50:08.079Z,32.10
2017-10-06T10:52:37.690Z,31.70
2017-10-06T10:55:05.763Z,29.90
2017-10-06T10:57:33.859Z,27.80
2017-10-06T11:00:01.947Z,27.10
2017-10-06T11:02:30.055Z,26.30
2017-10-06T11:04:58.139Z,28.30
2017-10-06T11:07:26.218Z,26.40
2017-10-06T11:09:54.314Z,25.50
2017-10-06T11:12:23.183Z,29.10
2017-10-06T11:14:51.268Z,28.20
2017-10-06T11:17:19.748Z,29.10
2017-10-06T11:19:47.866Z,29.00
2017-10-06T11:22:15.936Z,28.90
2017-10-06T11:24:44.021Z,28.80
2017-10-06T11:27:12.114Z,30.50
2017-10-06T11:29:40.203Z,32.00
2017-10-06T11:32:08.319Z,31.80
2017-10-06T11:34:36.412Z,30.50
2017-10-06T11:37:04.492Z,31.40
2017-10-06T11:39:32.585Z,32.70
2017-10-06T11:42:00.664Z,32.70
2017-10-06T11:44:28.756Z,32.50
2017-10-06T11:46:57.604Z,33.90
2017-10-06T11:49:25.698Z,33.80
2017-10-06T11:51:53.820Z,34.20
2017-10-06T11:54:21.922Z,36.00
2017-10-06T11:56:49.983Z,36.20
2017-10-06T11:59:18.079Z,39.70
2017-10-06T12:01:46.155Z,42.90
2017-10-06T12:04:14.259Z,47.00
2017-10-06T12:06:43.472Z,47.20
2017-10-06T12:09:11.579Z,49.60
2017-10-06T12:11:39.660Z,48.30
2017-10-06T12:14:07.739Z,50.10
2017-10-06T12:16:35.837Z,50.80
2017-10-06T12:19:04.683Z,51.00
2017-10-06T12:21:32.794Z,52.20
2017-10-06T12:24:00.872Z,53.90
2017-10-06T12:26:29.716Z,54.50
2017-10-06T12:28:58.576Z,50.30
2017-10-06T12:31:26.673Z,52.60
2017-10-06T12:33:54.755Z,51.90
2017-10-06T12:36:22.874Z,53.70
2017-10-06T12:38:51.724Z,53.50
2017-10-06T12:41:19.804Z,51.80
2017-10-06T12:43:47.900Z,50.00
2017-10-06T12:46:16.767Z,49.60
2017-10-06T12:48:46.383Z,47.60
2017-10-06T12:51:14.468Z,48.30
2017-10-06T12:53:42.538Z,48.10
2017-10-06T12:56:11.040Z,48.60
2017-10-06T12:58:39.891Z,46.60
2017-10-06T13:01:07.983Z,44.10
2017-10-06T13:03:36.484Z,43.70
2017-10-06T13:08:34.687Z,43.80
2017-10-06T13:11:02.796Z,43.60
2017-10-06T13:13:31.648Z,43.20
2017-10-06T13:15:59.718Z,41.60
2017-10-06T13:18:28.219Z,41.90
2017-10-06T13:20:57.067Z,41.20
2017-10-06T13:23:25.943Z,41.50
2017-10-06T13:25:54.018Z,39.30
2017-10-06T13:28:22.104Z,40.30
2017-10-06T13:30:50.963Z,39.40
2017-10-06T13:33:19.118Z,38.50
2017-10-06T13:35:47.939Z,39.40
2017-10-06T13:38:16.047Z,38.90
2017-10-06T13:40:44.886Z,39.70
2017-10-06T13:43:12.963Z,39.00
2017-10-06T13:45:41.079Z,39.80
2017-10-06T13:48:09.932Z,43.50
2017-10-06T13:50:38.036Z,43.50
2017-10-06T13:53:06.503Z,44.70
2017-10-06T13:55:35.004Z,45.10
2017-10-06T13:58:03.852Z,45.20
2017-10-06T14:00:31.964Z,38.40
2017-10-06T14:03:00.819Z,33.20
2017-10-06T14:05:30.424Z,30.50
2017-10-06T14:07:58.584Z,28.60
2017-10-06T14:10:26.671Z,28.20
2017-10-06T14:12:54.751Z,32.50
2017-10-06T14:15:22.860Z,32.10
2017-10-06T14:17:50.939Z,33.30
2017-10-06T14:20:19.022Z,34.20
2017-10-06T14:22:47.114Z,34.80
2017-10-06T14:25:15.207Z,34.30
2017-10-06T14:27:43.292Z,33.50
2017-10-06T14:30:11.394Z,32.00
2017-10-06T14:32:39.477Z,30.20
2017-10-06T14:35:07.580Z,26.90
2017-10-06T14:37:35.704Z,26.60
2017-10-06T14:40:04.571Z,26.10
2017-10-06T14:42:33.851Z,28.10
2017-10-06T14:47:31.296Z,24.10
2017-10-06T14:49:59.376Z,25.50
2017-10-06T14:52:27.476Z,26.60
2017-10-06T14:54:55.555Z,28.40
2017-10-06T14:57:23.664Z,29.10
2017-10-06T14:59:52.509Z,33.00
2017-10-06T15:02:20.600Z,35.90
2017-10-06T15:04:48.711Z,37.00
2017-10-06T15:07:17.212Z,37.50
2017-10-06T15:09:45.323Z,38.40
2017-10-06T15:12:13.408Z,37.40
2017-10-06T15:14:42.251Z,38.00
2017-10-06T15:17:10.359Z,36.70
2017-10-06T15:19:38.444Z,37.40
2017-10-06T15:22:07.287Z,37.80
2017-10-06T15:24:35.396Z,37.60
2017-10-06T15:27:03.475Z,37.50
2017-10-06T15:29:32.686Z,37.10
2017-10-06T15:32:01.551Z,37.90
2017-10-06T15:34:29.648Z,36.60
2017-10-06T15:36:58.523Z,37.40
2017-10-06T15:39:26.603Z,38.30
2017-10-06T15:41:55.454Z,38.80
2017-10-06T15:44:23.556Z,39.10
2017-10-06T15:46:51.658Z,39.20
2017-10-06T15:49:19.739Z,39.50
2017-10-06T15:51:48.607Z,39.50
2017-10-06T15:54:17.456Z,40.30
2017-10-06T15:56:45.543Z,39.60
2017-10-06T15:59:13.644Z,40.80
2017-10-06T16:01:42.500Z,41.40
2017-10-06T16:04:10.613Z,41.00
2017-10-06T16:06:39.464Z,41.50
2017-10-06T16:09:07.564Z,41.50
2017-10-06T16:11:36.427Z,42.50
2017-10-06T16:14:04.544Z,41.80
2017-10-06T16:16:32.623Z,42.50
2017-10-06T16:19:01.104Z,42.90
2017-10-06T16:21:29.202Z,42.30
2017-10-06T16:23:58.096Z,43.30
2017-10-06T16:26:26.180Z,44.30
2017-10-06T16:28:54.264Z,44.20
2017-10-06T16:33:51.708Z,46.40
2017-10-06T16:38:49.583Z,46.00
2017-10-06T16:41:17.668Z,48.80
2017-10-06T16:43:46.892Z,49.50
2017-10-06T16:46:15.013Z,47.50
2017-10-06T16:48:43.095Z,47.60
2017-10-06T16:51:11.171Z,46.80
2017-10-06T16:53:39.279Z,47.30
2017-10-06T16:56:07.359Z,48.60
2017-10-06T16:58:35.435Z,47.50
2017-10-06T17:01:03.534Z,48.30
2017-10-06T17:03:32.012Z,48.10
2017-10-06T17:06:00.883Z,48.70
2017-10-06T17:08:29.034Z,47.40
2017-10-06T17:10:57.143Z,48.30
2017-10-06T17:13:25.995Z,50.00
2017-10-06T17:15:54.891Z,48.80
2017-10-06T17:18:23.103Z,48.00
2017-10-06T17:20:52.468Z,48.00
2017-10-06T17:23:20.549Z,48.50
2017-10-06T17:25:48.630Z,49.40
2017-10-06T17:28:16.762Z,50.00
2017-10-06T17:30:44.842Z,49.00
2017-10-06T17:33:12.937Z,49.40
2017-10-06T17:35:41.052Z,50.00
2017-10-06T17:38:09.140Z,49.60
2017-10-06T17:40:37.292Z,50.60
2017-10-06T17:43:06.584Z,52.30
2017-10-06T17:45:35.468Z,52.20
2017-10-06T17:48:04.104Z,53.30
2017-10-06T17:50:32.200Z,52.40
2017-10-06T17:53:00.372Z,52.90
2017-10-06T17:55:29.731Z,52.60
2017-10-06T17:57:57.833Z,53.70
2017-10-06T18:00:26.028Z,55.00
2017-10-06T18:02:54.897Z,54.60
2017-10-06T18:05:22.984Z,56.20
2017-10-06T18:07:51.105Z,57.30
2017-10-06T18:10:19.195Z,55.70
2017-10-06T18:12:48.857Z,54.10
2017-10-06T18:15:17.020Z,54.60
2017-10-06T18:17:45.113Z,55.40
2017-10-06T18:20:13.976Z,54.70
2017-10-06T18:22:42.101Z,55.90
2017-10-06T18:25:10.975Z,57.90
2017-10-06T18:27:39.826Z,59.70
2017-10-06T18:32:42.571Z,57.30
2017-10-06T18:35:11.449Z,58.90
2017-10-06T18:37:40.331Z,58.90
2017-10-06T18:40:08.427Z,56.90
2017-10-06T18:42:37.285Z,57.60
2017-10-06T18:45:05.395Z,57.10
2017-10-06T18:47:33.503Z,58.50
2017-10-06T18:50:01.628Z,59.70
2017-10-06T18:52:31.220Z,59.70
2017-10-06T18:54:59.339Z,61.10
2017-10-06T18:57:28.595Z,61.20
2017-10-06T18:59:56.694Z,60.80
2017-10-06T19:02:25.544Z,61.20
2017-10-06T19:04:53.660Z,58.80
2017-10-06T19:07:21.762Z,61.30
2017-10-06T19:09:49.854Z,60.00
2017-10-06T19:12:17.972Z,60.00
2017-10-06T19:14:46.060Z,60.60
2017-10-06T19:17:14.156Z,61.40
2017-10-06T19:19:42.280Z,63.20
2017-10-06T19:22:10.772Z,63.10
2017-10-06T19:24:38.876Z,62.70
2017-10-06T19:27:06.985Z,63.20
2017-10-06T19:29:35.082Z,63.50
2017-10-06T19:32:03.985Z,66.00
2017-10-06T19:34:32.085Z,66.30
2017-10-06T19:37:00.169Z,66.90
2017-10-06T19:39:28.296Z,67.10
2017-10-06T19:41:57.164Z,67.00
2017-10-06T19:44:25.277Z,67.60
2017-10-06T19:46:54.711Z,65.60
2017-10-06T19:49:22.804Z,64.50
2017-10-06T19:51:50.961Z,63.80
2017-10-06T19:54:19.027Z,64.10
2017-10-06T19:56:47.138Z,63.90
2017-10-06T20:01:44.865Z,62.20
2017-10-06T20:04:12.968Z,62.50
2017-10-06T20:06:41.103Z,61.80
2017-10-06T20:09:09.217Z,62.00
2017-10-06T20:11:37.317Z,61.60
2017-10-06T20:14:05.448Z,62.00
2017-10-06T20:16:33.689Z,61.40
2017-10-06T20:19:01.779Z,61.20
2017-10-06T20:21:30.642Z,60.20
2017-10-06T20:23:58.994Z,59.50
2017-10-06T20:26:27.078Z,59.70
2017-10-06T20:28:55.566Z,59.10
2017-10-06T20:33:53.116Z,59.00
2017-10-06T20:36:21.219Z,59.20
2017-10-06T20:38:49.716Z,59.00
2017-10-06T20:41:17.834Z,59.40
2017-10-06T20:43:45.927Z,59.20
2017-10-06T20:46:14.784Z,59.80
2017-10-06T20:48:42.899Z,59.60
2017-10-06T20:51:11.759Z,60.70
2017-10-06T20:56:10.037Z,59.70
2017-10-06T20:58:38.145Z,59.90
2017-10-06T21:01:06.228Z,60.70
2017-10-06T21:03:35.121Z,59.80
2017-10-06T21:06:03.216Z,60.40
2017-10-06T21:08:32.458Z,60.20
2017-10-06T21:11:00.960Z,58.90
2017-10-06T21:13:29.834Z,59.70
2017-10-06T21:15:57.948Z,58.30
2017-10-06T21:18:26.076Z,58.90
2017-10-06T21:20:55.322Z,59.00
2017-10-06T21:25:52.819Z,58.70
2017-10-06T21:30:50.301Z,58.70
2017-10-06T21:33:21.174Z,58.10
2017-10-06T21:35:49.653Z,58.60
2017-10-06T21:38:18.534Z,58.70
2017-10-06T21:40:47.405Z,59.60
2017-10-06T21:43:15.515Z,58.90
2017-10-06T21:45:44.396Z,59.00
2017-10-06T21:48:12.496Z,59.20
2017-10-06T21:50:41.352Z,59.80
2017-10-06T21:53:09.495Z,59.00
2017-10-06T21:55:37.596Z,58.40
2017-10-06T21:58:05.705Z,58.50
2017-10-06T22:00:33.812Z,58.60
2017-10-06T22:03:02.695Z,58.50
2017-10-06T22:05:32.727Z,57.80
2017-10-06T22:08:00.827Z,58.20
2017-10-06T22:10:30.438Z,58.80
2017-10-06T22:12:58.544Z,58.80
2017-10-06T22:15:28.163Z,57.80
2017-10-06T22:17:56.265Z,58.80
2017-10-06T22:20:24.374Z,59.00
2017-10-06T22:22:52.479Z,59.10
2017-10-06T22:25:20.585Z,59.00
2017-10-06T22:27:48.673Z,59.60
2017-10-06T22:30:16.785Z,60.20
2017-10-06T22:32:45.774Z,61.20
2017-10-06T22:35:13.907Z,60.30
2017-10-06T22:37:41.993Z,60.50
2017-10-06T22:42:40.585Z,61.10
2017-10-06T22:45:08.664Z,60.70
2017-10-06T22:47:36.789Z,60.50
2017-10-06T22:50:05.269Z,60.80
2017-10-06T22:52:33.792Z,61.40
2017-10-06T22:55:01.888Z,61.00
2017-10-06T22:57:29.979Z,61.00
2017-10-06T22:59:58.084Z,61.10
2017-10-06T23:02:26.181Z,61.40
2017-10-06T23:04:54.289Z,61.50
2017-10-06T23:07:23.155Z,61.70
2017-10-06T23:09:51.339Z,61.20
2017-10-06T23:12:19.452Z,61.30
2017-10-06T23:14:49.103Z,60.70
2017-10-06T23:17:17.200Z,60.90
2017-10-06T23:19:46.284Z,63.00
2017-10-06T23:22:14.375Z,62.60
2017-10-06T23:24:43.270Z,61.30
2017-10-06T23:27:11.369Z,61.30
2017-10-06T23:29:39.438Z,59.60
2017-10-06T23:32:07.557Z,59.00
2017-10-06T23:34:35.739Z,57.50
2017-10-06T23:37:03.822Z,58.10
2017-10-06T23:39:31.939Z,58.60
2017-10-06T23:42:00.055Z,57.20
2017-10-06T23:44:28.433Z,57.70
2017-10-06T23:46:56.543Z,57.30
2017-10-06T23:49:25.019Z,55.90
2017-10-06T23:51:53.893Z,57.70
2017-10-06T23:54:22.044Z,56.70
2017-10-06T23:56:50.135Z,57.00
2017-10-06T23:59:18.240Z,57.00
